Gsp Alcor — 9V8448 — position and weather

sailwx.info

Track history (hours):
 
Tides and Currents Weather Stations Pressure Air Temp Water Temp Dewpoint Dewpoint Depression Visibility Wind Speed Wind Dir Waves Ship Positions

Gsp Alcor

Last reported at 2016-Feb-04 17:33 UTC. Time now 2016-Feb-07 21:56 UTC.
Position N 44°12' E 028°56'.

Length 59 m; draft 4.2 m.

Type: Ship. MMSI: 565543000.

Date/timePositionNaut miles runAvg speedWind from/ knotsBaromVisibWave heightAir tempDewpointWater temp
2016-Feb-04 17:33N 44°12' E 028°56'8 7.7
2016-Feb-04 16:33N 44°08' E 028°47'5 5.4
2016-Feb-04 15:33N 44°09' E 028°40'1 1.1
2016-Feb-04 14:28N 44°10' E 028°39'0 0.0
2016-Feb-04 13:25N 44°10' E 028°39'0 0.0
2016-Feb-04 12:31N 44°10' E 028°39'0 0.0
2016-Feb-04 11:31N 44°10' E 028°39'0 0.0
2016-Feb-04 10:31N 44°10' E 028°39'0 0.0
2016-Feb-04 09:28N 44°10' E 028°39'0 0.0
2016-Feb-04 08:31N 44°10' E 028°39'0 0.0
2016-Feb-04 07:31N 44°10' E 028°39'0 0.0
2016-Feb-04 06:31N 44°10' E 028°39'0 0.0
2016-Feb-04 05:22N 44°10' E 028°39'0 0.0
2016-Feb-04 04:25N 44°10' E 028°39'0 0.0
2016-Feb-04 03:22N 44°10' E 028°39'0 0.0
2016-Feb-04 02:25N 44°10' E 028°39'0 0.0
2016-Feb-04 01:28N 44°10' E 028°39'0 0.0
2016-Feb-04 00:28N 44°10' E 028°39'0 0.0
2016-Feb-03 23:28N 44°10' E 028°39'0 0.0
2016-Feb-03 22:28N 44°10' E 028°39'0 0.0
2016-Feb-03 21:31N 44°10' E 028°39'0 0.0
2016-Feb-03 20:31N 44°10' E 028°39'0 0.0
2016-Feb-03 19:31N 44°10' E 028°39'0 0.0
2016-Feb-03 18:31N 44°10' E 028°39'0 0.0
2016-Feb-03 17:19N 44°10' E 028°39'0 0.0
2016-Feb-03 16:29N 44°10' E 028°39'2 2.5
2016-Feb-03 15:33N 44°08' E 028°41'2 2.2
2016-Feb-03 14:31N 44°06' E 028°39'0 0.0
2016-Feb-03 13:31N 44°06' E 028°39'0 0.0
2016-Feb-03 12:31N 44°06' E 028°39'0 0.0
2016-Feb-03 11:19N 44°06' E 028°39'0 0.0
2016-Feb-03 10:31N 44°06' E 028°39'0 0.0
2016-Feb-03 09:31N 44°06' E 028°39'0 0.0
2016-Feb-03 08:31N 44°06' E 028°39'0 0.0
2016-Feb-03 07:31N 44°06' E 028°39'0 0.0
2016-Feb-03 06:22N 44°06' E 028°39'0 0.0
2016-Feb-03 05:25N 44°06' E 028°39'0 0.0
2016-Feb-03 04:25N 44°06' E 028°39'0 0.0
2016-Feb-03 03:25N 44°06' E 028°39'0 0.0
2016-Feb-03 02:28N 44°06' E 028°39'0 0.0
2016-Feb-03 01:28N 44°06' E 028°39'0 0.0
2016-Feb-03 00:28N 44°06' E 028°39'0 0.0
2016-Feb-02 23:31N 44°06' E 028°39'0 0.0
2016-Feb-02 22:31N 44°06' E 028°39'0 0.0
2016-Feb-02 21:31N 44°06' E 028°39'0 0.0
2016-Feb-02 20:28N 44°06' E 028°39'0 0.0
2016-Feb-02 19:31N 44°06' E 028°39'0 0.0
2016-Feb-02 18:22N 44°06' E 028°39'0 0.0
2016-Feb-02 17:31N 44°06' E 028°39'0 0.0
2016-Feb-02 16:22N 44°06' E 028°39'0 0.0
2016-Feb-02 15:19N 44°06' E 028°39'0 0.0
2016-Feb-02 14:25N 44°06' E 028°39'0 0.0
2016-Feb-02 13:22N 44°06' E 028°39'0 0.0
2016-Feb-02 12:28N 44°06' E 028°39'0 0.0
2016-Feb-02 11:28N 44°06' E 028°39'0 0.0
2016-Feb-02 10:28N 44°06' E 028°39'0 0.0
2016-Feb-02 09:31N 44°06' E 028°39'0 0.0
2016-Feb-02 08:31N 44°06' E 028°39'0 0.0
2016-Feb-02 07:31N 44°06' E 028°39'0 0.0
2016-Feb-02 06:31N 44°06' E 028°39'0 0.0
2016-Feb-02 05:31N 44°06' E 028°39'0 0.0
2016-Feb-02 04:04N 44°06' E 028°39'0 0.0
2016-Feb-02 03:31N 44°06' E 028°39'0 0.0
2016-Feb-02 02:31N 44°06' E 028°39'0 0.0
2016-Feb-02 01:22N 44°06' E 028°39'0 0.0
2016-Feb-02 00:25N 44°06' E 028°39'0 0.0
2016-Feb-01 23:25N 44°06' E 028°39'0 0.0
2016-Feb-01 22:25N 44°06' E 028°39'0 0.0
2016-Feb-01 21:28N 44°06' E 028°39'0 0.0
2016-Feb-01 20:28N 44°06' E 028°39'0 0.0
2016-Feb-01 19:28N 44°06' E 028°39'0 0.0
2016-Feb-01 18:31N 44°06' E 028°39'0 0.0
2016-Feb-01 17:31N 44°06' E 028°39'0 0.0
2016-Feb-01 16:31N 44°06' E 028°39'0 0.0
2016-Feb-01 15:28N 44°06' E 028°39'0 0.0
2016-Feb-01 14:31N 44°06' E 028°39'0 0.2
2016-Feb-01 13:33N 44°06' E 028°39'3 3.5
2016-Feb-01 12:33N 44°09' E 028°40'  
Track history (hours):
 
Tides and Currents Weather Stations Pressure Air Temp Water Temp Dewpoint Dewpoint Depression Visibility Wind Speed Wind Dir Waves Ship Positions

Gsp Alcor

Last reported at 2016-Feb-04 17:33 UTC. Time now 2016-Feb-07 21:56 UTC.
Position N 44°12' E 028°56'.

Length 59 m; draft 4.2 m.

Type: Ship. MMSI: 565543000.

Date/timePositionNaut miles runAvg speedWind from/ knotsBaromVisibWave heightAir tempDewpointWater temp
2016-Feb-04 17:33N 44°12' E 028°56'8 7.7
2016-Feb-04 16:33N 44°08' E 028°47'5 5.4
2016-Feb-04 15:33N 44°09' E 028°40'1 1.1
2016-Feb-04 14:28N 44°10' E 028°39'0 0.0
2016-Feb-04 13:25N 44°10' E 028°39'0 0.0
2016-Feb-04 12:31N 44°10' E 028°39'0 0.0
2016-Feb-04 11:31N 44°10' E 028°39'0 0.0
2016-Feb-04 10:31N 44°10' E 028°39'0 0.0
2016-Feb-04 09:28N 44°10' E 028°39'0 0.0
2016-Feb-04 08:31N 44°10' E 028°39'0 0.0
2016-Feb-04 07:31N 44°10' E 028°39'0 0.0
2016-Feb-04 06:31N 44°10' E 028°39'0 0.0
2016-Feb-04 05:22N 44°10' E 028°39'0 0.0
2016-Feb-04 04:25N 44°10' E 028°39'0 0.0
2016-Feb-04 03:22N 44°10' E 028°39'0 0.0
2016-Feb-04 02:25N 44°10' E 028°39'0 0.0
2016-Feb-04 01:28N 44°10' E 028°39'0 0.0
2016-Feb-04 00:28N 44°10' E 028°39'0 0.0
2016-Feb-03 23:28N 44°10' E 028°39'0 0.0
2016-Feb-03 22:28N 44°10' E 028°39'0 0.0
2016-Feb-03 21:31N 44°10' E 028°39'0 0.0
2016-Feb-03 20:31N 44°10' E 028°39'0 0.0
2016-Feb-03 19:31N 44°10' E 028°39'0 0.0
2016-Feb-03 18:31N 44°10' E 028°39'0 0.0
2016-Feb-03 17:19N 44°10' E 028°39'0 0.0
2016-Feb-03 16:29N 44°10' E 028°39'2 2.5
2016-Feb-03 15:33N 44°08' E 028°41'2 2.2
2016-Feb-03 14:31N 44°06' E 028°39'0 0.0
2016-Feb-03 13:31N 44°06' E 028°39'0 0.0
2016-Feb-03 12:31N 44°06' E 028°39'0 0.0
2016-Feb-03 11:19N 44°06' E 028°39'0 0.0
2016-Feb-03 10:31N 44°06' E 028°39'0 0.0
2016-Feb-03 09:31N 44°06' E 028°39'0 0.0
2016-Feb-03 08:31N 44°06' E 028°39'0 0.0
2016-Feb-03 07:31N 44°06' E 028°39'0 0.0
2016-Feb-03 06:22N 44°06' E 028°39'0 0.0
2016-Feb-03 05:25N 44°06' E 028°39'0 0.0
2016-Feb-03 04:25N 44°06' E 028°39'0 0.0
2016-Feb-03 03:25N 44°06' E 028°39'0 0.0
2016-Feb-03 02:28N 44°06' E 028°39'0 0.0
2016-Feb-03 01:28N 44°06' E 028°39'0 0.0
2016-Feb-03 00:28N 44°06' E 028°39'0 0.0
2016-Feb-02 23:31N 44°06' E 028°39'0 0.0
2016-Feb-02 22:31N 44°06' E 028°39'0 0.0
2016-Feb-02 21:31N 44°06' E 028°39'0 0.0
2016-Feb-02 20:28N 44°06' E 028°39'0 0.0
2016-Feb-02 19:31N 44°06' E 028°39'0 0.0
2016-Feb-02 18:22N 44°06' E 028°39'0 0.0
2016-Feb-02 17:31N 44°06' E 028°39'0 0.0
2016-Feb-02 16:22N 44°06' E 028°39'0 0.0
2016-Feb-02 15:19N 44°06' E 028°39'0 0.0
2016-Feb-02 14:25N 44°06' E 028°39'0 0.0
2016-Feb-02 13:22N 44°06' E 028°39'0 0.0
2016-Feb-02 12:28N 44°06' E 028°39'0 0.0
2016-Feb-02 11:28N 44°06' E 028°39'0 0.0
2016-Feb-02 10:28N 44°06' E 028°39'0 0.0
2016-Feb-02 09:31N 44°06' E 028°39'0 0.0
2016-Feb-02 08:31N 44°06' E 028°39'0 0.0
2016-Feb-02 07:31N 44°06' E 028°39'0 0.0
2016-Feb-02 06:31N 44°06' E 028°39'0 0.0
2016-Feb-02 05:31N 44°06' E 028°39'0 0.0
2016-Feb-02 04:04N 44°06' E 028°39'0 0.0
2016-Feb-02 03:31N 44°06' E 028°39'0 0.0
2016-Feb-02 02:31N 44°06' E 028°39'0 0.0
2016-Feb-02 01:22N 44°06' E 028°39'0 0.0
2016-Feb-02 00:25N 44°06' E 028°39'0 0.0
2016-Feb-01 23:25N 44°06' E 028°39'0 0.0
2016-Feb-01 22:25N 44°06' E 028°39'0 0.0
2016-Feb-01 21:28N 44°06' E 028°39'0 0.0
2016-Feb-01 20:28N 44°06' E 028°39'0 0.0
2016-Feb-01 19:28N 44°06' E 028°39'0 0.0
2016-Feb-01 18:31N 44°06' E 028°39'0 0.0
2016-Feb-01 17:31N 44°06' E 028°39'0 0.0
2016-Feb-01 16:31N 44°06' E 028°39'0 0.0
2016-Feb-01 15:28N 44°06' E 028°39'0 0.0
2016-Feb-01 14:31N 44°06' E 028°39'0 0.2
2016-Feb-01 13:33N 44°06' E 028°39'3 3.5
2016-Feb-01 12:33N 44°09' E 028°40'  

Dump ship's entire track history